createdAt,value
2019-03-17T00:00:31.177Z,99627.00
2019-03-17T00:03:00.699Z,99624.00
2019-03-17T00:05:30.190Z,99627.00
2019-03-17T00:07:59.589Z,99613.00
2019-03-17T00:10:29.187Z,99614.00
2019-03-17T00:12:58.724Z,99608.00
2019-03-17T00:15:28.328Z,99624.00
2019-03-17T00:17:57.889Z,99593.00
2019-03-17T00:20:27.409Z,99599.00
2019-03-17T00:22:56.875Z,99551.00
2019-03-17T00:25:26.401Z,99599.00
2019-03-17T00:27:55.866Z,99590.00
2019-03-17T00:30:25.317Z,99596.00
2019-03-17T00:32:54.792Z,99586.00
2019-03-17T00:35:24.316Z,99587.00
2019-03-17T00:37:53.839Z,99595.00
2019-03-17T00:40:23.324Z,99569.00
2019-03-17T00:42:52.849Z,99567.00
2019-03-17T00:45:22.405Z,99570.00
2019-03-17T00:47:51.907Z,99563.00
2019-03-17T00:50:21.416Z,99578.00
2019-03-17T00:52:50.865Z,99561.00
2019-03-17T00:55:20.387Z,99561.00
2019-03-17T00:57:49.861Z,99564.00
2019-03-17T01:00:19.387Z,99555.00
2019-03-17T01:02:48.873Z,99548.00
2019-03-17T01:05:18.412Z,99543.00
2019-03-17T01:07:47.959Z,99557.00
2019-03-17T01:10:17.432Z,99561.00
2019-03-17T01:12:46.877Z,99549.00
2019-03-17T01:15:16.433Z,99550.00
2019-03-17T01:17:48.470Z,99546.00
2019-03-17T01:20:17.968Z,99542.00
2019-03-17T01:22:47.404Z,99552.00
2019-03-17T01:25:17.081Z,99536.00
2019-03-17T01:27:46.527Z,99520.00
2019-03-17T01:30:16.111Z,99524.00
2019-03-17T01:32:45.597Z,99520.00
2019-03-17T01:35:15.199Z,99531.00
2019-03-17T01:37:46.210Z,99517.00
2019-03-17T01:40:16.902Z,99528.00
2019-03-17T01:42:46.354Z,99513.00
2019-03-17T01:45:15.883Z,99513.00
2019-03-17T01:47:45.352Z,99520.00
2019-03-17T01:50:14.963Z,99502.00
2019-03-17T01:52:44.437Z,99510.00
2019-03-17T01:55:13.877Z,99501.00
2019-03-17T01:57:43.342Z,99483.00
2019-03-17T02:00:14.660Z,99472.00
2019-03-17T02:02:44.189Z,99475.00
2019-03-17T02:05:22.002Z,99474.00
2019-03-17T02:07:44.858Z,99475.00
2019-03-17T02:10:14.519Z,99490.00
2019-03-17T02:12:44.117Z,99484.00
2019-03-17T02:15:14.991Z,99476.00
2019-03-17T02:17:44.582Z,99487.00
2019-03-17T02:20:14.299Z,99471.00
2019-03-17T02:22:43.797Z,99459.00
2019-03-17T02:25:13.313Z,99474.00
2019-03-17T02:27:42.747Z,99470.00
2019-03-17T02:30:13.623Z,99473.00
2019-03-17T02:32:43.073Z,99479.00
2019-03-17T02:35:12.736Z,99459.00
2019-03-17T02:37:42.213Z,99464.00
2019-03-17T02:40:11.857Z,99459.00
2019-03-17T02:42:41.278Z,99453.00
2019-03-17T02:45:11.473Z,99453.00
2019-03-17T02:47:40.998Z,99450.00
2019-03-17T02:50:11.086Z,99460.00
2019-03-17T02:52:40.561Z,99462.00
2019-03-17T02:55:10.359Z,99455.00
2019-03-17T02:57:41.373Z,99452.00
2019-03-17T03:00:12.830Z,99430.00
2019-03-17T03:02:42.275Z,99450.00
2019-03-17T03:05:12.250Z,99436.00
2019-03-17T03:07:41.777Z,99446.00
2019-03-17T03:10:11.299Z,99440.00
2019-03-17T03:12:40.794Z,99442.00
2019-03-17T03:15:10.782Z,99441.00
2019-03-17T03:17:40.275Z,99459.00
2019-03-17T03:20:10.638Z,99440.00
2019-03-17T03:22:40.113Z,99437.00
2019-03-17T03:25:10.808Z,99432.00
2019-03-17T03:27:40.262Z,99434.00
2019-03-17T03:30:14.343Z,99438.00
2019-03-17T03:32:43.818Z,99430.00
2019-03-17T03:35:13.419Z,99422.00
2019-03-17T03:37:45.950Z,99423.00
2019-03-17T03:40:15.457Z,99414.00
2019-03-17T03:42:44.902Z,99419.00
2019-03-17T03:45:15.413Z,99418.00
2019-03-17T03:47:44.942Z,99423.00
2019-03-17T03:50:14.612Z,99407.00
2019-03-17T03:52:44.107Z,99401.00
2019-03-17T03:55:13.801Z,99398.00
2019-03-17T03:57:43.248Z,99404.00
2019-03-17T04:00:15.674Z,99406.00
2019-03-17T04:02:45.130Z,99419.00
2019-03-17T04:05:14.659Z,99412.00
2019-03-17T04:07:44.322Z,99409.00
2019-03-17T04:10:14.009Z,99412.00
2019-03-17T04:12:43.447Z,99409.00
2019-03-17T04:15:14.590Z,99414.00
2019-03-17T04:17:44.123Z,99417.00
2019-03-17T04:20:14.019Z,99408.00
2019-03-17T04:22:43.547Z,99403.00
2019-03-17T04:25:17.648Z,99392.00
2019-03-17T04:27:47.189Z,99395.00
2019-03-17T04:30:16.704Z,99389.00
2019-03-17T04:32:46.175Z,99392.00
2019-03-17T04:35:15.691Z,99402.00
2019-03-17T04:37:45.129Z,99395.00
2019-03-17T04:40:14.766Z,99398.00
2019-03-17T04:42:44.363Z,99393.00
2019-03-17T04:45:13.880Z,99397.00
2019-03-17T04:47:43.443Z,99389.00
2019-03-17T04:50:13.142Z,99410.00
2019-03-17T04:52:42.684Z,99405.00
2019-03-17T04:55:12.186Z,99404.00
2019-03-17T04:57:41.630Z,99396.00
2019-03-17T05:00:13.356Z,99394.00
2019-03-17T05:02:42.840Z,99395.00
2019-03-17T05:05:12.653Z,99390.00
2019-03-17T05:07:42.178Z,99395.00
2019-03-17T05:10:11.757Z,99395.00
2019-03-17T05:12:41.307Z,99392.00
2019-03-17T05:15:12.148Z,99392.00
2019-03-17T05:17:41.611Z,99399.00
2019-03-17T05:20:12.093Z,99401.00
2019-03-17T05:22:41.541Z,99403.00
2019-03-17T05:25:11.191Z,99416.00
2019-03-17T05:27:40.678Z,99406.00
2019-03-17T05:30:12.050Z,99405.00
2019-03-17T05:32:41.479Z,99405.00
2019-03-17T05:35:11.635Z,99404.00
2019-03-17T05:37:41.136Z,99425.00
2019-03-17T05:40:11.588Z,99422.00
2019-03-17T05:42:41.274Z,99429.00
2019-03-17T05:45:10.966Z,99425.00
2019-03-17T05:47:40.406Z,99414.00
2019-03-17T05:50:11.027Z,99433.00
2019-03-17T05:52:40.540Z,99443.00
2019-03-17T05:55:11.438Z,99444.00
2019-03-17T05:57:40.972Z,99444.00
2019-03-17T06:00:18.207Z,99446.00
2019-03-17T06:02:47.679Z,99452.00
2019-03-17T06:05:17.218Z,99452.00
2019-03-17T06:07:46.737Z,99456.00
2019-03-17T06:10:16.295Z,99475.00
2019-03-17T06:12:45.836Z,99495.00
2019-03-17T06:15:15.292Z,99481.00
2019-03-17T06:17:44.787Z,99491.00
2019-03-17T06:20:14.381Z,99489.00
2019-03-17T06:22:43.898Z,99491.00
2019-03-17T06:25:13.387Z,99487.00
2019-03-17T06:27:42.911Z,99493.00
2019-03-17T06:30:14.164Z,99516.00
2019-03-17T06:32:43.618Z,99515.00
2019-03-17T06:35:13.107Z,99530.00
2019-03-17T06:37:42.638Z,99529.00
2019-03-17T06:40:15.270Z,99544.00
2019-03-17T06:42:44.811Z,99543.00
2019-03-17T06:45:14.311Z,99544.00
2019-03-17T06:47:43.752Z,99537.00
2019-03-17T06:50:15.229Z,99560.00
2019-03-17T06:52:44.822Z,99572.00
2019-03-17T06:55:18.694Z,99587.00
2019-03-17T06:57:48.256Z,99596.00
2019-03-17T07:00:17.848Z,99603.00
2019-03-17T07:02:47.434Z,99617.00
2019-03-17T07:05:16.988Z,99620.00
2019-03-17T07:07:46.463Z,99639.00
2019-03-17T07:10:15.912Z,99639.00
2019-03-17T07:12:45.475Z,99631.00
2019-03-17T07:15:15.004Z,99637.00
2019-03-17T07:17:44.695Z,99647.00
2019-03-17T07:20:14.984Z,99645.00
2019-03-17T07:22:44.430Z,99654.00
2019-03-17T07:25:14.832Z,99655.00
2019-03-17T07:27:44.124Z,99659.00
2019-03-17T07:30:15.701Z,99654.00
2019-03-17T07:32:45.167Z,99665.00
2019-03-17T07:35:14.768Z,99671.00
2019-03-17T07:37:56.284Z,99655.00
2019-03-17T07:40:15.671Z,99669.00
2019-03-17T07:42:45.134Z,99669.00
2019-03-17T07:45:14.729Z,99665.00
2019-03-17T07:47:44.253Z,99662.00
2019-03-17T07:50:14.439Z,99674.00
2019-03-17T07:52:43.905Z,99687.00
2019-03-17T07:55:13.505Z,99672.00
2019-03-17T07:57:42.945Z,99675.00
2019-03-17T08:00:14.919Z,99681.00
2019-03-17T08:02:44.340Z,99688.00
2019-03-17T08:05:13.782Z,99688.00
2019-03-17T08:07:43.233Z,99684.00
2019-03-17T08:10:15.370Z,99696.00
2019-03-17T08:12:44.770Z,99686.00
2019-03-17T08:15:15.136Z,99688.00
2019-03-17T08:17:44.665Z,99694.00
2019-03-17T08:20:14.601Z,99683.00
2019-03-17T08:22:44.095Z,99688.00
2019-03-17T08:25:13.805Z,99698.00
2019-03-17T08:27:43.301Z,99698.00
2019-03-17T08:30:19.030Z,99704.00
2019-03-17T08:32:48.520Z,99703.00
2019-03-17T08:35:17.997Z,99715.00
2019-03-17T08:37:47.474Z,99716.00
2019-03-17T08:40:20.322Z,99719.00
2019-03-17T08:42:49.864Z,99726.00
2019-03-17T08:45:19.334Z,99716.00
2019-03-17T08:47:57.729Z,99717.00
2019-03-17T08:50:20.374Z,99726.00
2019-03-17T08:52:49.831Z,99724.00
2019-03-17T08:55:19.328Z,99724.00
2019-03-17T08:57:48.754Z,99732.00
2019-03-17T09:00:20.852Z,99735.00
2019-03-17T09:02:50.314Z,99730.00
2019-03-17T09:05:19.733Z,99741.00
2019-03-17T09:07:49.195Z,99726.00
2019-03-17T09:10:18.752Z,99731.00
2019-03-17T09:12:48.219Z,99734.00
2019-03-17T09:15:17.678Z,99738.00
2019-03-17T09:17:47.156Z,99738.00
2019-03-17T09:20:16.727Z,99753.00
2019-03-17T09:22:46.176Z,99774.00
2019-03-17T09:25:15.690Z,99779.00
2019-03-17T09:27:45.114Z,99784.00
2019-03-17T09:30:17.253Z,99786.00
2019-03-17T09:32:46.781Z,99787.00
2019-03-17T09:35:16.359Z,99809.00
2019-03-17T09:37:45.804Z,99807.00
2019-03-17T09:40:19.265Z,99809.00
2019-03-17T09:42:48.761Z,99824.00
2019-03-17T09:45:18.272Z,99832.00
2019-03-17T09:47:47.815Z,99835.00
2019-03-17T09:50:19.159Z,99847.00
2019-03-17T09:52:48.613Z,99850.00
2019-03-17T09:55:18.125Z,99850.00
2019-03-17T09:57:47.605Z,99852.00
2019-03-17T10:00:19.744Z,99853.00
2019-03-17T10:02:49.274Z,99852.00
2019-03-17T10:05:18.940Z,99851.00
2019-03-17T10:07:48.488Z,99849.00
2019-03-17T10:10:23.345Z,99850.00
2019-03-17T10:12:52.765Z,99847.00
2019-03-17T10:15:22.361Z,99849.00
2019-03-17T10:17:51.769Z,99852.00
2019-03-17T10:20:21.853Z,99857.00
2019-03-17T10:22:51.438Z,99862.00
2019-03-17T10:25:21.093Z,99867.00
2019-03-17T10:27:50.616Z,99871.00
2019-03-17T10:30:23.622Z,99882.00
2019-03-17T10:32:53.090Z,99889.00
2019-03-17T10:35:22.566Z,99907.00
2019-03-17T10:37:52.091Z,99914.00
2019-03-17T10:40:22.665Z,99907.00
2019-03-17T10:42:52.447Z,99907.00
2019-03-17T10:45:21.994Z,99919.00
2019-03-17T10:47:54.425Z,99917.00
2019-03-17T10:50:23.290Z,99919.00
2019-03-17T10:52:52.919Z,99924.00
2019-03-17T10:55:24.510Z,99928.00
2019-03-17T10:57:53.864Z,99929.00
2019-03-17T11:00:24.844Z,99932.00
2019-03-17T11:02:54.585Z,99941.00
2019-03-17T11:05:24.120Z,99938.00
2019-03-17T11:07:53.608Z,99932.00
2019-03-17T11:10:23.079Z,99939.00
2019-03-17T11:12:52.621Z,99959.00
2019-03-17T11:15:25.212Z,99956.00
2019-03-17T11:17:54.611Z,99954.00
2019-03-17T11:20:24.050Z,99941.00
2019-03-17T11:22:53.510Z,99949.00
2019-03-17T11:25:23.109Z,99940.00
2019-03-17T11:27:52.530Z,99947.00
2019-03-17T11:30:23.204Z,99938.00
2019-03-17T11:32:52.642Z,99936.00
2019-03-17T11:35:22.231Z,99957.00
2019-03-17T11:37:51.659Z,99968.00
2019-03-17T11:40:22.065Z,99958.00
2019-03-17T11:42:51.591Z,99968.00
2019-03-17T11:45:21.126Z,99971.00
2019-03-17T11:47:51.577Z,99991.00
2019-03-17T11:50:22.835Z,99991.00
2019-03-17T11:52:53.337Z,99994.00
2019-03-17T11:55:22.934Z,100005.00
2019-03-17T11:57:52.615Z,100009.00
2019-03-17T12:00:25.504Z,100014.00
2019-03-17T12:02:54.980Z,100007.00
2019-03-17T12:05:24.420Z,100010.00
2019-03-17T12:07:53.906Z,100012.00
2019-03-17T12:10:25.266Z,100013.00
2019-03-17T12:12:54.866Z,100022.00
2019-03-17T12:15:33.788Z,100010.00
2019-03-17T12:18:03.205Z,99997.00
2019-03-17T12:20:32.781Z,99998.00
2019-03-17T12:23:02.310Z,100014.00
2019-03-17T12:25:31.934Z,100016.00
2019-03-17T12:28:01.526Z,100013.00
2019-03-17T12:30:31.008Z,100009.00
2019-03-17T12:33:00.458Z,99998.00
2019-03-17T12:35:29.948Z,100013.00
2019-03-17T12:37:59.436Z,100013.00
2019-03-17T12:40:28.956Z,100039.00
2019-03-17T12:42:58.430Z,100022.00
2019-03-17T12:45:27.976Z,100027.00
2019-03-17T12:47:57.516Z,100017.00
2019-03-17T12:50:27.906Z,100017.00
2019-03-17T12:52:57.534Z,100010.00
2019-03-17T12:55:27.066Z,100012.00
2019-03-17T12:57:56.548Z,100026.00
2019-03-17T13:00:27.863Z,100027.00
2019-03-17T13:02:57.458Z,100032.00
2019-03-17T13:05:26.866Z,100032.00
2019-03-17T13:07:56.385Z,100027.00
2019-03-17T13:10:25.797Z,100035.00
2019-03-17T13:12:55.253Z,100036.00
2019-03-17T13:15:24.777Z,100033.00
2019-03-17T13:17:54.235Z,100038.00
2019-03-17T13:20:23.848Z,100059.00
2019-03-17T13:22:53.365Z,100055.00
2019-03-17T13:25:22.829Z,100090.00
2019-03-17T13:27:52.404Z,100095.00
2019-03-17T13:30:22.010Z,100113.00
2019-03-17T13:32:51.462Z,100114.00
2019-03-17T13:35:21.033Z,100122.00
2019-03-17T13:37:50.489Z,100120.00
2019-03-17T13:40:29.448Z,100118.00
2019-03-17T13:42:52.194Z,100101.00
2019-03-17T13:45:21.721Z,100116.00
2019-03-17T13:47:53.064Z,100105.00
2019-03-17T13:50:23.809Z,100108.00
2019-03-17T13:52:53.352Z,100114.00
2019-03-17T13:55:22.844Z,100116.00
2019-03-17T13:58:05.584Z,100120.00
2019-03-17T14:00:35.211Z,100126.00
2019-03-17T14:03:04.934Z,100123.00
2019-03-17T14:05:34.459Z,100135.00
2019-03-17T14:08:04.088Z,100143.00
2019-03-17T14:10:41.049Z,100141.00
2019-03-17T14:13:04.877Z,100147.00
2019-03-17T14:15:34.302Z,100132.00
2019-03-17T14:18:03.764Z,100145.00
2019-03-17T14:20:33.279Z,100142.00
2019-03-17T14:23:03.003Z,100138.00
2019-03-17T14:25:37.681Z,100145.00
2019-03-17T14:28:07.254Z,100143.00
2019-03-17T14:30:37.039Z,100152.00
2019-03-17T14:33:06.567Z,100153.00
2019-03-17T14:35:35.991Z,100153.00
2019-03-17T14:38:05.567Z,100153.00
2019-03-17T14:40:35.174Z,100157.00
2019-03-17T14:43:04.796Z,100157.00
2019-03-17T14:45:34.264Z,100155.00
2019-03-17T14:48:03.853Z,100168.00
2019-03-17T14:50:33.481Z,100162.00
2019-03-17T14:53:03.021Z,100163.00
2019-03-17T14:55:32.458Z,100161.00
2019-03-17T14:58:01.932Z,100173.00
2019-03-17T15:00:31.505Z,100178.00
2019-03-17T15:03:00.931Z,100175.00
2019-03-17T15:05:30.431Z,100187.00
2019-03-17T15:07:59.903Z,100186.00
2019-03-17T15:10:29.430Z,100195.00
2019-03-17T15:12:58.916Z,100203.00
2019-03-17T15:15:28.495Z,100193.00
2019-03-17T15:17:57.976Z,100194.00
2019-03-17T15:20:28.463Z,100210.00
2019-03-17T15:22:58.000Z,100222.00
2019-03-17T15:25:27.491Z,100217.00
2019-03-17T15:27:57.054Z,100225.00
2019-03-17T15:30:35.125Z,100223.00
2019-03-17T15:33:04.718Z,100210.00
2019-03-17T15:35:34.149Z,100225.00
2019-03-17T15:38:03.587Z,100223.00
2019-03-17T15:40:33.046Z,100225.00
2019-03-17T15:43:02.493Z,100228.00
2019-03-17T15:45:31.927Z,100232.00
2019-03-17T15:48:04.100Z,100237.00
2019-03-17T15:50:32.824Z,100242.00
2019-03-17T15:53:02.378Z,100249.00
2019-03-17T15:55:31.947Z,100242.00
2019-03-17T15:58:01.550Z,100244.00
2019-03-17T16:00:31.202Z,100245.00
2019-03-17T16:03:00.753Z,100252.00
2019-03-17T16:05:30.197Z,100264.00
2019-03-17T16:07:59.624Z,100271.00
2019-03-17T16:10:31.964Z,100271.00
2019-03-17T16:13:01.425Z,100275.00
2019-03-17T16:15:30.862Z,100281.00
2019-03-17T16:18:00.416Z,100285.00
2019-03-17T16:20:29.990Z,100283.00
2019-03-17T16:22:59.500Z,100281.00
2019-03-17T16:25:39.947Z,100282.00
2019-03-17T16:28:09.411Z,100283.00
2019-03-17T16:30:38.865Z,100276.00
2019-03-17T16:33:08.307Z,100281.00
2019-03-17T16:35:37.895Z,100284.00
2019-03-17T16:38:07.415Z,100287.00
2019-03-17T16:40:37.300Z,100295.00
2019-03-17T16:43:07.353Z,100300.00
2019-03-17T16:45:36.890Z,100304.00
2019-03-17T16:48:06.579Z,100315.00
2019-03-17T16:50:36.050Z,100332.00
2019-03-17T16:53:05.660Z,100334.00
2019-03-17T16:55:35.208Z,100354.00
2019-03-17T16:58:04.797Z,100353.00
2019-03-17T17:03:03.131Z,100353.00
2019-03-17T17:05:34.962Z,100359.00
2019-03-17T17:08:03.794Z,100363.00
2019-03-17T17:10:33.282Z,100376.00
2019-03-17T17:13:03.193Z,100381.00
2019-03-17T17:15:36.595Z,100381.00
2019-03-17T17:18:06.194Z,100387.00
2019-03-17T17:20:40.516Z,100393.00
2019-03-17T17:23:10.049Z,100394.00
2019-03-17T17:25:39.484Z,100392.00
2019-03-17T17:28:08.987Z,100396.00
2019-03-17T17:30:38.595Z,100397.00
2019-03-17T17:33:08.221Z,100398.00
2019-03-17T17:35:37.695Z,100404.00
2019-03-17T17:38:07.132Z,100406.00
2019-03-17T17:40:36.605Z,100409.00
2019-03-17T17:43:06.162Z,100417.00
2019-03-17T17:45:35.649Z,100416.00
2019-03-17T17:48:05.186Z,100423.00
2019-03-17T17:50:34.958Z,100426.00
2019-03-17T17:53:04.467Z,100435.00
2019-03-17T17:55:33.911Z,100438.00
2019-03-17T17:58:03.467Z,100453.00
2019-03-17T18:00:37.610Z,100458.00
2019-03-17T18:03:07.266Z,100469.00
2019-03-17T18:05:36.811Z,100465.00
2019-03-17T18:08:06.362Z,100486.00
2019-03-17T18:10:35.884Z,100492.00
2019-03-17T18:13:06.998Z,100494.00
2019-03-17T18:15:36.578Z,100502.00
2019-03-17T18:18:06.111Z,100506.00
2019-03-17T18:20:35.601Z,100512.00
2019-03-17T18:23:16.930Z,100513.00
2019-03-17T18:25:36.348Z,100510.00
2019-03-17T18:28:06.136Z,100523.00
2019-03-17T18:30:35.923Z,100520.00
2019-03-17T18:33:05.600Z,100521.00
2019-03-17T18:35:35.358Z,100533.00
2019-03-17T18:38:05.201Z,100540.00
2019-03-17T18:40:34.630Z,100550.00
2019-03-17T18:43:04.188Z,100549.00
2019-03-17T18:45:34.434Z,100558.00
2019-03-17T18:48:04.110Z,100567.00
2019-03-17T18:50:33.653Z,100578.00
2019-03-17T18:53:03.272Z,100579.00
2019-03-17T18:55:32.775Z,100591.00
2019-03-17T18:58:02.261Z,100590.00
2019-03-17T19:00:31.745Z,100599.00
2019-03-17T19:03:01.282Z,100597.00
2019-03-17T19:05:30.777Z,100598.00
2019-03-17T19:08:00.244Z,100597.00
2019-03-17T19:10:31.537Z,100599.00
2019-03-17T19:13:03.785Z,100599.00
2019-03-17T19:15:32.232Z,100597.00
2019-03-17T19:18:01.746Z,100603.00
2019-03-17T19:20:31.285Z,100604.00
2019-03-17T19:23:00.725Z,100609.00
2019-03-17T19:25:30.215Z,100611.00
2019-03-17T19:27:59.834Z,100604.00
2019-03-17T19:30:29.517Z,100612.00
2019-03-17T19:32:59.045Z,100606.00
2019-03-17T19:35:28.532Z,100608.00
2019-03-17T19:37:58.049Z,100610.00
2019-03-17T19:40:27.499Z,100612.00
2019-03-17T19:42:59.674Z,100610.00
2019-03-17T19:45:28.141Z,100614.00
2019-03-17T19:47:57.670Z,100617.00
2019-03-17T19:50:27.166Z,100622.00
2019-03-17T19:52:56.769Z,100638.00
2019-03-17T19:55:26.245Z,100644.00
2019-03-17T19:57:55.721Z,100644.00
2019-03-17T20:00:25.163Z,100646.00
2019-03-17T20:02:54.614Z,100643.00
2019-03-17T20:05:24.128Z,100641.00
2019-03-17T20:07:53.630Z,100648.00
2019-03-17T20:10:33.175Z,100652.00
2019-03-17T20:13:11.457Z,100659.00
2019-03-17T20:15:33.889Z,100650.00
2019-03-17T20:18:03.348Z,100650.00
2019-03-17T20:20:32.832Z,100650.00
2019-03-17T20:23:02.358Z,100654.00
2019-03-17T20:25:31.776Z,100662.00
2019-03-17T20:28:04.167Z,100659.00
2019-03-17T20:30:33.780Z,100677.00
2019-03-17T20:33:03.298Z,100677.00
2019-03-17T20:35:32.788Z,100683.00
2019-03-17T20:38:02.277Z,100680.00
2019-03-17T20:40:31.677Z,100673.00
2019-03-17T20:43:01.140Z,100673.00
2019-03-17T20:45:30.607Z,100671.00
2019-03-17T20:48:00.064Z,100682.00
2019-03-17T20:50:29.490Z,100689.00
2019-03-17T20:52:59.003Z,100702.00
2019-03-17T20:55:28.429Z,100694.00
2019-03-17T20:57:58.025Z,100698.00
2019-03-17T21:00:27.655Z,100702.00
2019-03-17T21:02:57.239Z,100721.00
2019-03-17T21:05:26.848Z,100704.00
2019-03-17T21:07:56.456Z,100710.00
2019-03-17T21:10:26.049Z,100714.00
2019-03-17T21:12:55.654Z,100710.00
2019-03-17T21:15:25.488Z,100713.00
2019-03-17T21:17:55.050Z,100715.00
2019-03-17T21:20:25.768Z,100718.00
2019-03-17T21:22:55.310Z,100716.00
2019-03-17T21:25:24.894Z,100708.00
2019-03-17T21:27:54.640Z,100711.00
2019-03-17T21:30:27.391Z,100713.00
2019-03-17T21:32:56.861Z,100713.00
2019-03-17T21:35:26.584Z,100726.00
2019-03-17T21:37:56.147Z,100720.00
2019-03-17T21:40:25.749Z,100728.00
2019-03-17T21:42:56.678Z,100726.00
2019-03-17T21:45:27.603Z,100721.00
2019-03-17T21:47:57.550Z,100730.00
2019-03-17T21:50:29.033Z,100732.00
2019-03-17T21:52:58.621Z,100736.00
2019-03-17T21:55:28.337Z,100735.00
2019-03-17T21:57:57.983Z,100731.00
2019-03-17T22:00:27.616Z,100745.00
2019-03-17T22:02:57.065Z,100743.00
2019-03-17T22:05:26.594Z,100747.00
2019-03-17T22:07:56.124Z,100750.00
2019-03-17T22:10:25.574Z,100754.00
2019-03-17T22:12:55.111Z,100747.00
2019-03-17T22:15:24.612Z,100755.00
2019-03-17T22:17:54.067Z,100757.00
2019-03-17T22:20:23.538Z,100753.00
2019-03-17T22:22:53.030Z,100753.00
2019-03-17T22:25:22.853Z,100758.00
2019-03-17T22:27:52.390Z,100764.00
2019-03-17T22:30:22.376Z,100765.00
2019-03-17T22:32:51.855Z,100767.00
2019-03-17T22:35:21.317Z,100764.00
2019-03-17T22:37:50.771Z,100761.00
2019-03-17T22:40:20.682Z,100763.00
2019-03-17T22:42:50.232Z,100762.00
2019-03-17T22:45:19.670Z,100770.00
2019-03-17T22:47:49.144Z,100761.00
2019-03-17T22:50:19.545Z,100759.00
2019-03-17T22:52:48.997Z,100756.00
2019-03-17T22:55:18.513Z,100760.00
2019-03-17T22:57:48.079Z,100765.00
2019-03-17T23:00:22.048Z,100767.00
2019-03-17T23:02:51.488Z,100782.00
2019-03-17T23:05:21.025Z,100781.00
2019-03-17T23:07:50.468Z,100779.00
2019-03-17T23:10:19.925Z,100778.00
2019-03-17T23:12:49.434Z,100781.00
2019-03-17T23:15:18.955Z,100779.00
2019-03-17T23:17:48.400Z,100789.00
2019-03-17T23:20:18.020Z,100783.00
2019-03-17T23:22:47.471Z,100781.00
2019-03-17T23:25:17.022Z,100782.00
2019-03-17T23:27:49.213Z,100792.00
2019-03-17T23:30:22.108Z,100780.00
2019-03-17T23:32:51.707Z,100792.00
2019-03-17T23:35:21.191Z,100797.00
2019-03-17T23:37:50.709Z,100807.00
2019-03-17T23:40:20.371Z,100793.00
2019-03-17T23:42:49.860Z,100800.00
2019-03-17T23:45:19.391Z,100793.00
2019-03-17T23:47:48.814Z,100797.00
2019-03-17T23:50:18.322Z,100797.00
2019-03-17T23:52:47.868Z,100806.00
2019-03-17T23:55:17.304Z,100798.00
2019-03-17T23:57:46.733Z,100810.00
